Time;durP1;ratioP1;P1;durP2;ratioP2;P2;SDS_P1;SDS_P2;PMS_P1;PMS_P2;Temp;Humidity;BMP_temperature;BMP_pressure;BME280_temperature;BME280_humidity;BME280_pressure;Samples;Min_cycle;Max_cycle;Signal;HPM_P1;HPM_P2
2021/03/27 00:00:41;;;;;;;6.80;6.20;;;13.40;73.00;;;;;;5073109;28;20921;-73
2021/03/27 00:03:39;;;;;;;6.97;6.37;;;13.50;72.00;;;;;;5073131;28;20937;-73
2021/03/27 00:06:11;;;;;;;7.13;6.17;;;13.50;71.80;;;;;;5060857;28;20519;-73
2021/03/27 00:08:57;;;;;;;6.80;6.20;;;13.60;71.70;;;;;;5072968;28;20481;-74
2021/03/27 00:11:29;;;;;;;7.07;6.47;;;13.50;72.00;;;;;;5073136;28;20388;-73
2021/03/27 00:14:02;;;;;;;6.80;5.87;;;13.60;71.90;;;;;;5072667;28;20398;-73
2021/03/27 00:16:36;;;;;;;7.50;5.50;;;13.60;71.60;;;;;;5073190;28;20438;-73
2021/03/27 00:19:14;;;;;;;6.23;5.73;;;13.60;72.10;;;;;;5073222;28;20431;-73
2021/03/27 00:21:45;;;;;;;7.43;6.63;;;13.60;72.30;;;;;;5072574;28;20403;-73
2021/03/27 00:24:30;;;;;;;8.07;7.27;;;13.60;72.70;;;;;;5073211;28;20863;-75
2021/03/27 00:27:09;;;;;;;9.70;8.80;;;13.60;73.50;;;;;;5072392;28;20408;-75
2021/03/27 00:29:45;;;;;;;9.50;7.43;;;13.70;74.40;;;;;;5072424;28;20856;-74
2021/03/27 00:32:17;;;;;;;8.83;8.03;;;13.70;75.70;;;;;;5073152;28;20739;-75
2021/03/27 00:34:50;;;;;;;10.53;9.30;;;13.60;77.20;;;;;;5072403;28;20418;-74
2021/03/27 00:37:23;;;;;;;14.80;10.13;;;13.60;79.60;;;;;;5072844;28;20388;-75
2021/03/27 00:39:58;;;;;;;10.13;9.10;;;13.50;81.90;;;;;;5072249;28;20384;-75
2021/03/27 00:42:31;;;;;;;9.50;8.60;;;13.40;85.30;;;;;;5073007;28;20452;-75
2021/03/27 00:45:18;;;;;;;9.03;8.20;;;13.20;87.40;;;;;;5072231;28;20415;-75
2021/03/27 00:47:51;;;;;;;11.00;9.90;;;13.00;88.00;;;;;;5072179;28;20487;-75
2021/03/27 00:50:38;;;;;;;10.57;9.57;;;12.70;89.30;;;;;;5073030;28;20966;-75
2021/03/27 00:53:20;;;;;;;9.00;8.20;;;12.50;90.70;;;;;;5072955;28;20403;-75
2021/03/27 00:55:59;;;;;;;9.87;8.97;;;12.40;91.80;;;;;;5072113;28;20947;-75
2021/03/27 00:58:34;;;;;;;8.90;8.00;;;12.20;92.30;;;;;;5072689;28;20404;-75
2021/03/27 01:01:04;;;;;;;7.93;7.23;;;11.90;92.60;;;;;;5071562;28;20413;-75
2021/03/27 01:03:53;;;;;;;7.73;6.43;;;11.70;92.90;;;;;;5072585;28;20748;-75
2021/03/27 01:06:26;;;;;;;5.67;5.27;;;11.50;92.80;;;;;;5070763;28;20788;-75
2021/03/27 01:08:53;;;;;;;6.70;6.20;;;11.20;92.70;;;;;;5071894;28;20444;-75
2021/03/27 01:11:27;;;;;;;7.40;6.80;;;11.10;93.30;;;;;;5072787;28;20768;-75
2021/03/27 01:13:56;;;;;;;8.63;7.93;;;10.90;94.00;;;;;;5071906;28;20430;-75
2021/03/27 01:16:29;;;;;;;7.40;6.80;;;10.80;94.30;;;;;;5072525;28;20744;-75
2021/03/27 01:19:21;;;;;;;8.30;6.90;;;10.60;94.20;;;;;;5071907;28;20397;-75
2021/03/27 01:21:48;;;;;;;6.90;6.27;;;10.50;94.60;;;;;;5071910;28;20413;-75
2021/03/27 01:24:16;;;;;;;9.17;8.27;;;10.40;94.90;;;;;;5073782;28;20403;-75
2021/03/27 01:26:49;;;;;;;7.70;6.93;;;10.30;95.30;;;;;;5075897;28;20429;-74
2021/03/27 01:29:28;;;;;;;8.90;8.10;;;10.20;95.50;;;;;;5076483;28;20518;-75
2021/03/27 01:32:19;;;;;;;7.87;7.17;;;10.20;95.60;;;;;;5075793;28;20399;-74
2021/03/27 01:35:00;;;;;;;7.40;6.80;;;10.30;96.00;;;;;;5075881;28;20447;-74
2021/03/27 01:37:31;;;;;;;8.13;7.40;;;10.30;95.90;;;;;;5076342;28;20498;-75
2021/03/27 01:40:11;;;;;;;8.77;8.07;;;10.20;95.80;;;;;;5075684;28;21332;-75
2021/03/27 01:43:03;;;;;;;8.10;7.40;;;10.20;96.10;;;;;;5076251;28;20399;-75
2021/03/27 01:45:40;;;;;;;8.07;7.37;;;10.10;96.20;;;;;;5076240;28;20414;-75
2021/03/27 01:48:25;;;;;;;8.60;7.80;;;10.00;96.60;;;;;;5075979;28;20461;-75
2021/03/27 01:50:56;;;;;;;7.27;6.67;;;10.10;96.80;;;;;;5075393;28;20805;-75
2021/03/27 01:53:33;;;;;;;7.90;7.10;;;10.00;96.80;;;;;;5075953;28;20391;-75
2021/03/27 01:56:14;;;;;;;7.37;6.67;;;10.00;97.30;;;;;;5075377;28;20882;-74
2021/03/27 01:58:50;;;;;;;6.80;6.20;;;9.90;97.60;;;;;;5075011;28;20395;-74
2021/03/27 02:01:25;;;;;;;6.30;5.80;;;10.00;97.00;;;;;;5075865;28;20391;-75
2021/03/27 02:04:01;;;;;;;6.50;6.00;;;10.00;96.80;;;;;;5075192;28;20396;-75
2021/03/27 02:06:45;;;;;;;5.73;5.33;;;10.10;96.80;;;;;;5076064;28;20455;-76
2021/03/27 02:09:36;;;;;;;6.07;5.53;;;10.10;96.70;;;;;;5075621;28;20855;-75
2021/03/27 02:12:20;;;;;;;4.67;4.27;;;10.00;96.30;;;;;;5075140;28;20781;-75
2021/03/27 02:14:58;;;;;;;4.83;4.43;;;9.90;97.40;;;;;;5073809;28;20871;-76
2021/03/27 02:17:32;;;;;;;4.97;4.57;;;9.90;97.20;;;;;;5075536;28;20477;-76
2021/03/27 02:20:01;;;;;;;5.40;4.43;;;9.90;97.30;;;;;;5074617;28;20405;-76
2021/03/27 02:22:34;;;;;;;4.37;3.97;;;9.80;97.30;;;;;;5075430;28;20438;-76
2021/03/27 02:25:33;;;;;;;4.30;4.00;;;9.80;97.30;;;;;;5074832;28;20610;-76
2021/03/27 02:28:34;;;;;;;4.23;3.93;;;9.80;97.50;;;;;;5074343;28;20478;-76
2021/03/27 02:31:12;;;;;;;4.77;4.37;;;9.90;97.60;;;;;;5074623;28;20753;-76
2021/03/27 02:33:51;;;;;;;4.97;4.57;;;9.80;97.50;;;;;;5075335;28;20384;-76
2021/03/27 02:36:35;;;;;;;3.93;3.63;;;9.80;98.00;;;;;;5074693;28;20415;-76
2021/03/27 02:39:15;;;;;;;3.60;3.40;;;9.70;97.70;;;;;;5074807;28;20678;-75
2021/03/27 02:41:51;;;;;;;3.90;3.60;;;9.70;97.40;;;;;;5074854;28;20860;-75
2021/03/27 02:44:46;;;;;;;3.50;3.20;;;9.70;97.40;;;;;;5074773;28;20751;-76
2021/03/27 02:47:26;;;;;;;3.60;3.30;;;9.70;97.70;;;;;;5074889;28;20427;-76
2021/03/27 02:50:42;;;;;;;4.17;3.87;;;9.70;97.90;;;;;;5074017;28;20425;-75
2021/03/27 02:53:14;;;;;;;3.87;3.53;;;9.60;97.90;;;;;;5062412;28;20450;-76
2021/03/27 02:55:50;;;;;;;4.87;3.60;;;9.70;98.20;;;;;;5074910;28;20399;-76
2021/03/27 02:58:19;;;;;;;5.07;3.47;;;9.70;98.10;;;;;;5074888;28;20395;-76
2021/03/27 03:00:55;;;;;;;3.90;3.60;;;9.80;97.90;;;;;;5074133;28;20863;-76
2021/03/27 03:03:58;;;;;;;4.83;4.13;;;9.80;97.70;;;;;;5074714;28;20374;-76
2021/03/27 03:06:48;;;;;;;4.10;3.80;;;9.80;97.60;;;;;;5074799;28;20419;-76
2021/03/27 03:09:22;;;;;;;6.17;4.00;;;9.90;97.60;;;;;;5074607;28;20450;-76
2021/03/27 03:11:59;;;;;;;5.37;4.00;;;9.90;97.60;;;;;;5073925;28;20415;-76
2021/03/27 03:15:01;;;;;;;3.90;3.60;;;9.90;97.40;;;;;;5074584;28;20478;-76
2021/03/27 03:17:31;;;;;;;3.70;3.50;;;9.80;97.60;;;;;;5074455;28;20445;-77
2021/03/27 03:20:13;;;;;;;6.03;3.60;;;9.70;97.50;;;;;;5073767;28;20510;-76
2021/03/27 03:22:48;;;;;;;4.70;3.60;;;9.70;97.60;;;;;;5074433;28;20892;-76
2021/03/27 03:25:21;;;;;;;3.50;3.20;;;9.70;98.10;;;;;;5074304;28;20393;-76
2021/03/27 03:27:58;;;;;;;3.47;3.20;;;9.70;98.30;;;;;;5073374;28;20467;-76
2021/03/27 03:30:38;;;;;;;3.60;3.40;;;9.70;98.00;;;;;;5073006;28;20407;-76
2021/03/27 03:33:28;;;;;;;3.60;3.30;;;9.70;97.80;;;;;;5073521;28;20817;-76
2021/03/27 03:36:05;;;;;;;3.53;3.23;;;9.60;97.90;;;;;;5073573;28;20435;-76
2021/03/27 03:38:57;;;;;;;4.03;3.63;;;9.60;97.50;;;;;;5074359;28;20427;-76
2021/03/27 03:41:46;;;;;;;3.63;3.50;;;9.70;97.90;;;;;;5073944;28;20538;-76
2021/03/27 03:44:49;;;;;;;4.50;3.70;;;9.60;97.90;;;;;;5074130;28;20403;-76
2021/03/27 03:47:23;;;;;;;5.60;4.30;;;9.60;97.60;;;;;;5073197;28;20403;-76
2021/03/27 03:50:03;;;;;;;4.33;3.70;;;9.70;97.50;;;;;;5073163;28;20447;-75
2021/03/27 03:52:45;;;;;;;5.00;4.60;;;9.70;97.60;;;;;;5072480;28;20403;-76
2021/03/27 03:55:31;;;;;;;4.67;4.37;;;9.70;97.30;;;;;;5074027;28;20396;-76
2021/03/27 03:58:14;;;;;;;4.63;4.33;;;9.70;97.40;;;;;;5072742;28;20403;-75
2021/03/27 04:01:00;;;;;;;4.70;4.37;;;9.60;97.40;;;;;;5073546;28;20584;-76
2021/03/27 04:03:31;;;;;;;4.77;4.33;;;9.60;97.50;;;;;;5062309;28;20411;-76
2021/03/27 04:06:08;;;;;;;8.00;4.40;;;9.60;97.60;;;;;;5073036;28;20433;-76
2021/03/27 04:09:03;;;;;;;7.53;4.40;;;9.60;97.10;;;;;;5073355;28;20465;-76
2021/03/27 04:11:52;;;;;;;5.63;5.13;;;9.50;96.90;;;;;;5073388;28;20388;-76
2021/03/27 04:14:36;;;;;;;6.17;4.33;;;9.40;96.90;;;;;;5073220;28;20407;-76
2021/03/27 04:17:09;;;;;;;5.20;4.60;;;9.40;96.90;;;;;;5072329;28;20404;-75
2021/03/27 04:20:00;;;;;;;7.53;4.53;;;9.40;96.50;;;;;;5073268;28;20799;-75
2021/03/27 04:22:33;;;;;;;6.90;5.13;;;9.40;96.30;;;;;;5073204;28;20387;-75
2021/03/27 04:25:11;;;;;;;5.20;4.70;;;9.50;96.30;;;;;;5072523;28;20976;-75
2021/03/27 04:28:00;;;;;;;5.33;4.60;;;9.40;95.80;;;;;;5072627;28;20457;-75
2021/03/27 04:30:25;;;;;;;5.23;4.70;;;9.50;96.10;;;;;;5073065;28;20404;-75
2021/03/27 04:33:19;;;;;;;6.67;5.50;;;9.40;95.70;;;;;;5072315;28;20418;-75
2021/03/27 04:35:48;;;;;;;7.43;5.00;;;9.40;95.80;;;;;;5073269;28;20179;-75
2021/03/27 04:38:20;;;;;;;9.77;5.80;;;9.40;96.00;;;;;;5072844;28;20407;-75
2021/03/27 04:41:09;;;;;;;5.87;5.37;;;9.40;96.10;;;;;;5072919;28;20407;-75
2021/03/27 04:43:50;;;;;;;7.30;5.73;;;9.40;96.00;;;;;;5072860;28;20417;-75
2021/03/27 04:46:24;;;;;;;8.23;5.73;;;9.40;95.90;;;;;;5072843;28;20872;-75
2021/03/27 04:48:54;;;;;;;7.20;5.87;;;9.50;95.90;;;;;;5072148;28;20481;-75
2021/03/27 04:51:20;;;;;;;6.63;5.60;;;9.50;95.70;;;;;;5072784;28;20426;-75
2021/03/27 04:53:52;;;;;;;7.27;6.20;;;9.40;95.50;;;;;;5072660;28;20403;-75
2021/03/27 04:56:56;;;;;;;7.10;5.87;;;9.50;95.60;;;;;;5072890;28;20407;-75
2021/03/27 04:59:40;;;;;;;6.30;5.70;;;9.50;95.40;;;;;;5071642;28;20969;-75
2021/03/27 05:02:12;;;;;;;6.03;5.50;;;9.50;95.30;;;;;;5072097;28;20406;-75
2021/03/27 05:04:56;;;;;;;6.90;6.30;;;9.50;95.20;;;;;;5072555;28;20907;-75
2021/03/27 05:07:48;;;;;;;7.80;7.10;;;9.60;95.10;;;;;;5072662;28;20433;-75
2021/03/27 05:10:32;;;;;;;8.27;6.40;;;9.50;95.00;;;;;;5071878;28;20982;-75
2021/03/27 05:13:23;;;;;;;8.47;6.10;;;9.50;95.10;;;;;;5071970;28;20403;-75
2021/03/27 05:16:28;;;;;;;8.03;6.70;;;9.50;94.80;;;;;;5072466;28;20873;-75
2021/03/27 05:19:09;;;;;;;7.90;6.43;;;9.60;94.70;;;;;;5049256;28;20427;-74
2021/03/27 05:21:37;;;;;;;8.27;7.07;;;9.60;94.60;;;;;;5070801;28;20427;-75
2021/03/27 05:24:24;;;;;;;8.60;6.20;;;9.50;94.70;;;;;;5071846;28;20443;-75
2021/03/27 05:27:09;;;;;;;10.17;6.00;;;9.50;94.80;;;;;;5072457;28;20399;-75
2021/03/27 05:29:42;;;;;;;10.30;7.10;;;9.50;94.90;;;;;;5072491;28;20413;-75
2021/03/27 05:32:35;;;;;;;7.53;6.90;;;9.60;94.90;;;;;;5071856;28;20485;-75
2021/03/27 05:35:33;;;;;;;11.53;6.57;;;9.60;94.90;;;;;;5071532;28;20918;-75
2021/03/27 05:38:31;;;;;;;7.60;6.30;;;9.50;94.70;;;;;;5071474;28;20865;-75
2021/03/27 05:41:11;;;;;;;6.63;6.00;;;9.50;94.70;;;;;;5071767;28;20398;-75
2021/03/27 05:44:00;;;;;;;7.80;5.57;;;9.50;94.80;;;;;;5072365;28;20402;-75
2021/03/27 05:47:03;;;;;;;7.90;6.00;;;9.50;95.10;;;;;;5069167;28;20472;-75
2021/03/27 05:49:35;;;;;;;6.03;4.77;;;9.50;95.10;;;;;;5072192;28;20466;-76
2021/03/27 05:52:13;;;;;;;4.70;4.30;;;9.50;95.00;;;;;;5071681;28;20400;-75
2021/03/27 05:55:12;;;;;;;6.43;4.90;;;9.40;95.00;;;;;;5072151;28;20418;-75
2021/03/27 05:58:15;;;;;;;5.17;4.67;;;9.40;94.90;;;;;;5071780;28;20408;-75
2021/03/27 06:00:54;;;;;;;5.90;5.40;;;9.40;95.40;;;;;;5072119;28;20424;-75
2021/03/27 06:03:44;;;;;;;8.10;4.50;;;9.30;95.10;;;;;;5072177;28;20887;-76
2021/03/27 06:06:16;;;;;;;12.00;6.00;;;9.30;95.00;;;;;;5071626;28;20420;-76
2021/03/27 06:08:47;;;;;;;8.20;5.40;;;9.30;95.00;;;;;;5071930;28;20481;-76
2021/03/27 06:11:34;;;;;;;6.50;5.27;;;9.40;94.90;;;;;;5074393;28;20403;-76
2021/03/27 06:14:34;;;;;;;9.40;5.27;;;9.30;94.80;;;;;;5074978;28;20413;-75
2021/03/27 06:17:15;;;;;;;6.97;4.90;;;9.30;94.90;;;;;;5075016;28;20442;-76
2021/03/27 06:20:24;;;;;;;6.57;5.53;;;9.40;94.70;;;;;;5075220;28;20405;-76
2021/03/27 06:23:04;;;;;;;11.63;4.83;;;9.40;94.60;;;;;;5075443;28;20391;-76
2021/03/27 06:25:33;;;;;;;9.53;5.17;;;9.50;94.50;;;;;;5074416;28;20830;-76
2021/03/27 06:28:22;;;;;;;6.37;4.60;;;9.50;94.30;;;;;;5074692;28;20467;-76
2021/03/27 06:31:13;;;;;;;8.30;4.90;;;9.70;94.20;;;;;;5075312;28;20411;-76
2021/03/27 06:34:16;;;;;;;7.33;4.50;;;9.50;93.90;;;;;;5075301;28;20744;-76
2021/03/27 06:37:02;;;;;;;8.93;4.30;;;9.50;94.20;;;;;;5075162;28;20426;-76
2021/03/27 06:39:41;;;;;;;6.70;5.00;;;9.40;94.10;;;;;;5075409;28;20416;-76
2021/03/27 06:42:22;;;;;;;6.70;4.87;;;9.40;94.10;;;;;;5074265;28;20867;-76
2021/03/27 06:45:22;;;;;;;7.67;4.83;;;9.40;94.20;;;;;;5074847;28;20895;-76
2021/03/27 06:48:03;;;;;;;5.83;4.40;;;9.40;94.10;;;;;;5074747;28;20406;-76
2021/03/27 06:51:02;;;;;;;8.67;4.93;;;9.40;94.50;;;;;;5075021;28;20410;-76
2021/03/27 06:53:49;;;;;;;5.40;4.00;;;9.50;94.10;;;;;;5074868;28;20906;-76
2021/03/27 06:56:36;;;;;;;7.23;4.80;;;9.60;94.20;;;;;;5074578;28;20929;-76
2021/03/27 06:59:04;;;;;;;5.90;4.37;;;9.60;94.10;;;;;;5074267;28;20756;-76
2021/03/27 07:01:55;;;;;;;5.10;4.60;;;9.60;94.40;;;;;;5074695;28;20411;-76
2021/03/27 07:04:50;;;;;;;10.83;4.83;;;9.60;94.30;;;;;;5074004;28;20415;-75
2021/03/27 07:07:31;;;;;;;5.97;5.00;;;9.50;94.40;;;;;;5074304;28;20419;-75
2021/03/27 07:10:27;;;;;;;5.73;5.20;;;9.50;94.40;;;;;;5074480;28;20790;-76
2021/03/27 07:13:19;;;;;;;10.40;5.13;;;9.60;94.30;;;;;;5074592;28;20400;-76
2021/03/27 07:16:03;;;;;;;8.70;5.47;;;9.60;94.10;;;;;;5074250;28;20495;-76
2021/03/27 07:18:44;;;;;;;9.00;5.13;;;9.70;93.90;;;;;;5107177;28;20420;-75
2021/03/27 07:21:30;;;;;;;6.07;4.90;;;9.70;93.90;;;;;;5072760;28;20502;-76
2021/03/27 07:24:17;;;;;;;6.67;5.10;;;9.80;93.60;;;;;;5074288;28;20487;-75
2021/03/27 07:27:20;;;;;;;6.03;4.83;;;9.80;93.50;;;;;;5074242;28;20738;-82
2021/03/27 07:29:58;;;;;;;6.53;4.63;;;9.80;93.80;;;;;;5074252;28;20809;-75
2021/03/27 07:32:51;;;;;;;6.30;5.10;;;9.70;94.30;;;;;;5073877;28;20773;-75
2021/03/27 07:35:23;;;;;;;5.60;5.20;;;9.70;95.10;;;;;;5073796;28;20430;-75
2021/03/27 07:38:14;;;;;;;7.53;5.03;;;9.70;95.30;;;;;;5074002;28;20887;-75
2021/03/27 07:41:10;;;;;;;8.30;5.40;;;9.60;95.60;;;;;;5073911;28;20434;-75
2021/03/27 07:43:39;;;;;;;5.60;5.10;;;9.50;96.40;;;;;;5073376;28;20438;-75
2021/03/27 07:46:13;;;;;;;5.53;3.80;;;9.30;96.70;;;;;;5071935;28;20418;-75
2021/03/27 07:48:54;;;;;;;4.63;4.20;;;9.20;96.50;;;;;;5070541;28;20443;-75
2021/03/27 07:51:57;;;;;;;6.77;4.13;;;9.20;96.90;;;;;;5069074;28;20407;-75
2021/03/27 07:54:41;;;;;;;4.83;4.53;;;9.10;97.50;;;;;;5072425;28;20860;-75
2021/03/27 07:57:22;;;;;;;4.07;3.77;;;9.10;97.00;;;;;;5073021;28;20406;-75
2021/03/27 08:00:00;;;;;;;5.20;4.17;;;9.20;97.00;;;;;;5073608;28;20411;-75
2021/03/27 08:02:46;;;;;;;7.53;4.60;;;9.10;97.10;;;;;;5073544;28;20400;-75
2021/03/27 08:05:49;;;;;;;3.87;3.40;;;9.10;97.10;;;;;;5072967;28;20426;-75
2021/03/27 08:08:49;;;;;;;3.60;2.33;;;8.90;96.20;;;;;;5071515;28;20429;-75
2021/03/27 08:11:22;;;;;;;2.60;2.40;;;8.70;95.30;;;;;;5072778;28;20707;-75
2021/03/27 08:14:12;;;;;;;3.67;3.47;;;8.60;95.50;;;;;;5072081;28;20893;-77
2021/03/27 08:16:47;;;;;;;3.10;3.00;;;8.40;96.00;;;;;;5073311;28;20415;-76
2021/03/27 08:19:47;;;;;;;3.20;1.80;;;8.30;96.10;;;;;;5072345;28;20733;-77
2021/03/27 08:22:40;;;;;;;2.60;2.27;;;8.20;96.30;;;;;;5061865;28;20852;-81
2021/03/27 08:25:18;;;;;;;2.43;2.30;;;8.10;96.50;;;;;;5071008;28;21000;-75
2021/03/27 08:28:23;;;;;;;59.70;33.17;;;8.00;96.30;;;;;;5072999;28;20536;-75
2021/03/27 08:31:25;;;;;;;2.87;2.67;;;7.90;96.30;;;;;;5068500;28;20456;-76
2021/03/27 08:34:05;;;;;;;4.30;3.27;;;7.90;96.60;;;;;;5072798;28;20368;-76
2021/03/27 08:36:48;;;;;;;3.10;2.90;;;7.80;96.30;;;;;;5073213;28;20460;-74
2021/03/27 08:39:22;;;;;;;5.13;3.77;;;7.70;96.60;;;;;;5072051;28;20413;-74
2021/03/27 08:42:17;;;;;;;3.70;3.40;;;7.70;96.80;;;;;;5071125;28;20427;-73
2021/03/27 08:45:20;;;;;;;4.60;4.20;;;7.70;97.00;;;;;;5016112;28;20431;-75
2021/03/27 08:48:12;;;;;;;4.07;3.50;;;7.70;97.50;;;;;;5072238;28;20396;-74
2021/03/27 08:50:56;;;;;;;3.80;3.50;;;7.70;97.60;;;;;;5072798;28;20451;-75
2021/03/27 08:53:54;;;;;;;4.30;4.00;;;7.70;97.50;;;;;;5071682;28;20416;-74
2021/03/27 08:56:37;;;;;;;4.70;4.23;;;7.80;97.30;;;;;;5071625;28;20377;-74
2021/03/27 08:59:30;;;;;;;3.40;3.20;;;7.80;96.50;;;;;;5071752;28;20475;-74
2021/03/27 09:02:02;;;;;;;4.43;4.03;;;7.80;96.10;;;;;;5070993;28;20449;-74
2021/03/27 09:04:43;;;;;;;4.50;3.80;;;7.80;96.80;;;;;;5071241;28;20395;-75
2021/03/27 09:07:37;;;;;;;4.43;4.03;;;7.80;97.10;;;;;;5071216;28;20430;-72
2021/03/27 09:10:30;;;;;;;168.60;94.70;;;7.80;96.90;;;;;;5071984;28;20761;-72
2021/03/27 09:13:37;;;;;;;15.10;9.73;;;7.90;97.50;;;;;;5066489;28;20944;-73
2021/03/27 09:16:29;;;;;;;3.90;3.03;;;7.90;97.60;;;;;;5064724;28;20415;-72
2021/03/27 09:19:00;;;;;;;3.33;3.13;;;7.90;97.90;;;;;;5071737;28;20883;-72
2021/03/27 09:21:34;;;;;;;3.33;3.10;;;8.00;98.00;;;;;;5070249;28;20472;-72
2021/03/27 09:24:25;;;;;;;4.43;4.13;;;8.10;98.20;;;;;;5070944;28;20487;-74
2021/03/27 09:27:05;;;;;;;3.70;3.43;;;8.20;97.90;;;;;;5069670;28;20407;-72
2021/03/27 09:30:07;;;;;;;3.40;3.20;;;8.40;98.10;;;;;;5072658;28;20467;-73
2021/03/27 09:32:46;;;;;;;3.83;3.40;;;8.50;98.10;;;;;;5052452;28;20432;-73
2021/03/27 09:35:43;;;;;;;3.73;3.53;;;8.70;97.90;;;;;;5051577;28;20404;-73
2021/03/27 09:38:11;;;;;;;3.53;3.23;;;8.90;97.40;;;;;;5051779;28;20419;-72
2021/03/27 09:41:01;;;;;;;3.90;3.57;;;9.10;97.40;;;;;;5052282;28;20404;-73
2021/03/27 09:43:49;;;;;;;5.40;4.03;;;9.20;97.20;;;;;;5061943;28;20553;-73
2021/03/27 09:46:30;;;;;;;6.50;3.77;;;9.30;96.80;;;;;;5074683;28;20415;-73
2021/03/27 09:49:18;;;;;;;4.50;4.10;;;9.60;97.00;;;;;;5076226;28;20907;-73
2021/03/27 09:52:29;;;;;;;5.87;4.97;;;9.90;96.80;;;;;;5075865;28;20419;-72
2021/03/27 09:55:13;;;;;;;9.77;5.07;;;10.00;95.50;;;;;;5075484;28;20411;-72
2021/03/27 09:57:46;;;;;;;7.43;4.50;;;10.20;95.20;;;;;;5073770;28;20497;-72
2021/03/27 10:00:41;;;;;;;7.37;4.60;;;10.60;95.20;;;;;;5077890;28;20467;-73
2021/03/27 10:03:16;;;;;;;7.80;3.93;;;11.00;94.00;;;;;;5090778;28;20407;-73
2021/03/27 10:05:51;;;;;;;3.83;3.50;;;11.40;92.90;;;;;;5075425;28;20422;-72
2021/03/27 10:08:27;;;;;;;5.07;3.70;;;11.90;91.60;;;;;;5073903;28;20952;-72
2021/03/27 10:11:13;;;;;;;6.33;4.33;;;12.20;90.30;;;;;;5075313;28;20466;-72
2021/03/27 10:13:41;;;;;;;6.03;4.27;;;12.40;88.20;;;;;;5075516;28;20415;-72
2021/03/27 10:16:23;;;;;;;4.97;4.33;;;12.60;82.30;;;;;;5075176;28;20848;-73
2021/03/27 10:18:54;;;;;;;7.10;3.93;;;12.50;82.60;;;;;;5075644;28;20391;-72
2021/03/27 10:21:35;;;;;;;6.23;4.80;;;12.50;84.00;;;;;;5074888;28;20485;-72
2021/03/27 10:24:22;;;;;;;7.83;5.40;;;12.60;80.20;;;;;;5075377;28;20460;-72
2021/03/27 10:27:23;;;;;;;25.83;20.47;;;12.70;81.20;;;;;;5075558;28;20399;-72
2021/03/27 10:30:03;;;;;;;11.90;7.23;;;12.40;79.00;;;;;;5075394;28;20865;-74
2021/03/27 10:32:32;;;;;;;2.80;2.60;;;12.20;84.80;;;;;;5074760;28;20454;-71
2021/03/27 10:35:12;;;;;;;4.30;3.93;;;11.90;83.70;;;;;;5075186;28;20411;-71
2021/03/27 10:37:54;;;;;;;3.33;2.83;;;11.70;85.90;;;;;;5075264;28;20405;-71
2021/03/27 10:40:38;;;;;;;3.63;3.43;;;11.40;86.60;;;;;;5074469;28;20450;-71
2021/03/27 10:43:42;;;;;;;3.80;3.40;;;11.30;86.00;;;;;;5074826;28;20534;-71
2021/03/27 10:46:31;;;;;;;3.67;2.97;;;11.50;88.60;;;;;;5074791;28;20866;-71
2021/03/27 10:49:15;;;;;;;3.90;3.50;;;11.30;90.30;;;;;;5074586;28;20444;-72
2021/03/27 10:52:19;;;;;;;5.70;3.30;;;11.30;90.30;;;;;;5075135;28;20415;-72
2021/03/27 10:55:02;;;;;;;5.00;4.63;;;11.20;90.00;;;;;;5074888;28;20398;-72
2021/03/27 10:57:49;;;;;;;5.77;5.37;;;10.90;89.70;;;;;;5074214;28;20398;-73
2021/03/27 11:00:39;;;;;;;7.40;5.60;;;10.70;89.50;;;;;;5074371;28;20531;-73
2021/03/27 11:03:17;;;;;;;7.53;5.57;;;10.30;90.20;;;;;;5074951;28;20396;-72
2021/03/27 11:05:51;;;;;;;6.60;5.70;;;10.20;91.90;;;;;;5074817;28;20883;-72
2021/03/27 11:09:01;;;;;;;6.80;6.20;;;9.90;93.00;;;;;;5074021;28;20462;-72
2021/03/27 11:11:56;;;;;;;5.30;4.90;;;9.90;93.20;;;;;;5054260;28;20426;-72
2021/03/27 11:14:47;;;;;;;8.43;6.40;;;10.40;97.90;;;;;;5073962;28;20735;-74
2021/03/27 11:17:32;;;;;;;7.00;6.00;;;11.20;98.40;;;;;;5073581;28;20508;-75
2021/03/27 11:20:13;;;;;;;8.60;7.40;;;11.70;95.40;;;;;;5074688;28;20456;-74
2021/03/27 11:22:42;;;;;;;9.53;6.70;;;12.30;94.00;;;;;;5074346;28;20445;-75
2021/03/27 11:25:27;;;;;;;5.60;5.10;;;12.70;92.90;;;;;;5074262;28;20480;-72
2021/03/27 11:28:19;;;;;;;7.60;5.00;;;12.90;92.40;;;;;;5073910;28;20450;-73
2021/03/27 11:30:45;;;;;;;7.40;4.80;;;13.40;90.20;;;;;;5066412;28;20924;-75
2021/03/27 11:33:22;;;;;;;6.60;5.30;;;13.70;89.80;;;;;;5074091;28;20452;-73
2021/03/27 11:36:24;;;;;;;5.30;4.30;;;14.00;88.00;;;;;;5074432;28;20226;-73
2021/03/27 11:39:25;;;;;;;6.13;4.20;;;14.40;84.00;;;;;;5074104;28;20416;-74
2021/03/27 11:42:11;;;;;;;5.20;3.97;;;14.70;81.90;;;;;;5072183;28;20870;-74
2021/03/27 11:44:58;;;;;;;4.03;3.70;;;14.80;78.50;;;;;;5073677;28;20409;-74
2021/03/27 11:47:42;;;;;;;4.03;3.50;;;14.90;79.10;;;;;;5072990;28;20442;-74
2021/03/27 11:50:19;;;;;;;5.27;4.07;;;15.10;77.10;;;;;;5073662;28;20480;-73
2021/03/27 11:53:10;;;;;;;4.13;3.83;;;15.20;76.00;;;;;;5073794;28;20391;-74
2021/03/27 11:55:59;;;;;;;5.07;4.57;;;15.30;75.50;;;;;;5073163;28;20533;-74
2021/03/27 11:59:42;;;;;;;6.27;5.17;;;15.40;77.60;;;;;;5073176;28;20403;-75
2021/03/27 12:01:34;;;;;;;6.50;4.50;;;15.60;76.90;;;;;;5072779;28;20415;-76
2021/03/27 12:04:05;;;;;;;11.13;8.17;;;15.80;75.20;;;;;;5072343;28;20425;-73
2021/03/27 12:06:33;;;;;;;5.43;4.70;;;16.00;79.20;;;;;;5071098;28;20420;-73
2021/03/27 12:09:25;;;;;;;9.03;8.07;;;16.10;76.90;;;;;;5072746;28;20456;-74
2021/03/27 12:12:07;;;;;;;18.53;14.80;;;16.30;79.10;;;;;;5073663;28;20418;-74
2021/03/27 12:14:41;;;;;;;10.23;8.60;;;16.70;76.50;;;;;;5071446;28;20414;-73
2021/03/27 12:17:35;;;;;;;18.57;13.40;;;16.60;73.10;;;;;;5073339;28;20404;-74
2021/03/27 12:20:09;;;;;;;17.90;15.20;;;16.10;74.20;;;;;;5073316;28;20395;-73
2021/03/27 12:22:41;;;;;;;17.07;13.23;;;16.00;77.10;;;;;;5072542;28;20410;-73
2021/03/27 12:25:38;;;;;;;14.07;11.50;;;15.90;76.20;;;;;;5073233;28;20446;-73
2021/03/27 12:28:14;;;;;;;10.70;8.83;;;15.70;74.40;;;;;;5072849;28;20450;-74
2021/03/27 12:30:47;;;;;;;7.13;6.37;;;15.40;76.70;;;;;;5071896;28;20398;-72
2021/03/27 12:33:29;;;;;;;6.90;6.30;;;15.70;73.90;;;;;;5072985;28;20520;-73
2021/03/27 12:36:19;;;;;;;5.83;5.30;;;15.70;74.40;;;;;;5072816;28;20513;-72
2021/03/27 12:39:03;;;;;;;5.90;5.30;;;15.60;74.10;;;;;;5071519;28;20546;-75
2021/03/27 12:42:00;;;;;;;5.00;4.60;;;15.60;75.20;;;;;;5072359;28;20406;-73
2021/03/27 12:44:43;;;;;;;26.20;21.20;;;15.90;71.90;;;;;;5055918;28;20892;-74
2021/03/27 12:47:20;;;;;;;46.70;30.77;;;16.10;70.20;;;;;;5072619;28;20426;-74
2021/03/27 12:50:06;;;;;;;16.52;12.65;;;15.70;68.70;;;;;;5071543;28;20783;-74
2021/03/27 12:53:07;;;;;;;5.23;4.73;;;15.70;69.20;;;;;;5067926;28;20557;-73
2021/03/27 12:56:07;;;;;;;13.20;9.37;;;15.80;65.20;;;;;;5062958;28;20985;-74
2021/03/27 12:58:56;;;;;;;6.10;5.50;;;16.00;69.40;;;;;;5071338;28;20926;-77
2021/03/27 13:01:59;;;;;;;4.90;4.50;;;15.90;66.40;;;;;;5072045;28;20411;-74
2021/03/27 13:04:53;;;;;;;5.30;4.80;;;15.80;64.00;;;;;;5071841;28;20407;-74
2021/03/27 13:07:24;;;;;;;3.90;3.60;;;15.70;62.90;;;;;;5072008;28;20412;-74
2021/03/27 13:10:27;;;;;;;5.47;4.70;;;15.60;62.70;;;;;;5072479;28;20469;-73
2021/03/27 13:13:07;;;;;;;4.57;3.60;;;15.60;62.10;;;;;;5072542;28;20418;-74
2021/03/27 13:15:49;;;;;;;4.93;3.63;;;14.90;62.20;;;;;;5071945;28;20507;-74
2021/03/27 13:19:04;;;;;;;6.53;3.97;;;14.30;64.00;;;;;;5072560;28;20466;-74
2021/03/27 13:21:34;;;;;;;3.80;3.40;;;13.90;65.60;;;;;;5022073;28;20437;-74
2021/03/27 13:24:14;;;;;;;4.97;3.70;;;13.60;64.80;;;;;;5076423;28;20402;-75
2021/03/27 13:26:41;;;;;;;3.80;3.47;;;13.10;65.80;;;;;;5074445;28;20422;-73
2021/03/27 13:29:32;;;;;;;3.77;3.47;;;12.80;68.90;;;;;;5074443;28;20954;-72
2021/03/27 13:32:04;;;;;;;3.43;3.17;;;13.00;72.30;;;;;;5076949;28;20863;-72
2021/03/27 13:34:33;;;;;;;3.50;3.30;;;13.20;72.50;;;;;;5075782;28;21865;-72
2021/03/27 13:37:22;;;;;;;3.93;3.20;;;13.50;71.40;;;;;;5076377;28;20497;-72
2021/03/27 13:39:58;;;;;;;3.20;2.90;;;13.50;70.00;;;;;;5075203;28;20483;-73
2021/03/27 13:42:47;;;;;;;106.35;72.13;;;13.80;71.90;;;;;;5075644;28;20301;-74
2021/03/27 13:45:41;;;;;;;167.33;100.83;;;13.50;66.70;;;;;;5073121;28;20264;-73
2021/03/27 13:48:13;;;;;;;9.27;6.03;;;13.80;72.00;;;;;;5076152;28;20446;-73
2021/03/27 13:50:45;;;;;;;5.07;4.27;;;13.80;69.50;;;;;;5074705;28;20518;-73
2021/03/27 13:53:37;;;;;;;5.80;4.60;;;13.70;70.20;;;;;;5074517;28;20411;-73
2021/03/27 13:56:28;;;;;;;6.27;5.67;;;14.00;69.90;;;;;;5071991;28;20399;-75
2021/03/27 13:59:25;;;;;;;4.27;3.60;;;14.20;70.00;;;;;;5073421;28;20761;-73
2021/03/27 14:02:09;;;;;;;4.43;4.03;;;14.50;68.50;;;;;;5073277;28;20865;-73
2021/03/27 14:04:42;;;;;;;4.80;4.30;;;14.90;68.70;;;;;;5073068;28;20918;-74
2021/03/27 14:07:32;;;;;;;4.77;3.50;;;15.50;64.30;;;;;;5075836;28;20398;-75
2021/03/27 14:10:00;;;;;;;4.40;3.97;;;15.10;58.20;;;;;;5075618;28;20446;-75
2021/03/27 14:12:34;;;;;;;4.03;3.63;;;15.00;61.00;;;;;;5073843;28;20895;-76
2021/03/27 14:15:03;;;;;;;4.60;3.47;;;15.10;59.90;;;;;;5075702;28;20542;-76